Monday, November 20, 2017, 2:30 AM EST
Back to Local

KNYC, New York City Central Park

Location: New York, NY, United States Lat: 40.783
Local Time: 2:30 AM EST ( 7:30 GMT) Lon: -73.967
Time Zone: US/Eastern Elev: 157 ft

Show me the last for .
Show Decoded

2017-11-20 01:51 METAR KNYC 200651Z AUTO 28007G16KT 240V310 10SM OVC070 04/M03 A2986 RMK AO2
                 SLP104 T00441033 $ =
2017-11-20 00:51 METAR KNYC 200551Z AUTO 28006G16KT 10SM BKN065 BKN085 04/M03 A2984 RMK AO2
                 SLP095 60000 T00441028 10072 20033 51021 $ =
2017-11-19 23:51 METAR KNYC 200451Z AUTO 28011G17KT 10SM OVC090 04/M02 A2982 RMK AO2 SLP088
                 T00441017 401500033 $ =
2017-11-19 22:51 METAR KNYC 200351Z AUTO VRB04KT 10SM FEW024 SCT037 OVC060 03/01 A2980 RMK AO2
                 RAB24E35 SLP084 P0000 T00330006 $ =
2017-11-19 21:51 METAR KNYC 200251Z AUTO 29011G18KT 10SM FEW060 BKN090 06/M02 A2977 RMK AO2
                 SLP074 T00611017 51020 $ =
2017-11-19 20:51 METAR KNYC 200151Z AUTO 28008KT 10SM FEW055 BKN070 OVC085 07/M03 A2975 RMK AO2
                 SLP068 T00721033 $ =
2017-11-19 19:51 METAR KNYC 200051Z AUTO VRB03KT 10SM OVC075 07/M04 A2974 RMK AO2 SLP063
                 T00721039 $ =
2017-11-19 18:51 METAR KNYC 192351Z AUTO 29008KT 10SM SCT070 07/M04 A2971 RMK AO2 SLP053
                 T00721044 10106 20072 51032 $ =
2017-11-19 17:51 METAR KNYC 192251Z AUTO 30007KT 270V330 10SM OVC065 07/M04 A2969 RMK AO2 SLP045
                 T00721039 $ =
2017-11-19 16:51 METAR KNYC 192151Z AUTO VRB05G17KT 10SM CLR 07/M04 A2965 RMK AO2 SLP032
                 T00721039 $ =
2017-11-19 15:51 METAR KNYC 192051Z AUTO 31013G24KT 280V340 10SM CLR 08/M03 A2962 RMK AO2 PK WND
                 31030/2017 SLP021 T00781033 53032 $ =
2017-11-19 14:51 METAR KNYC 191951Z AUTO 29013G24KT 10SM OVC047 09/M02 A2958 RMK AO2 PK WND
                 29026/1859 SLP008 T00891022 $2 $ =
2017-11-19 13:51 METAR KNYC 191851Z AUTO 30010G27KT 250V350 10SM SCT050 09/N02 A2955 RMK AO2 PK
                 WND 32028/1832 SLP999 T00891017 $ =
2017-11-19 12:51 METAR KNYC 191751Z AUTO 31010G24KT 200V070 10SM FEW050 10/M02 A2952 RMK AO2 PK
                 WND 29029/1734 SLP990 60002 T01001022 10139 20094 51039 $ =
2017-11-19 11:51 METAR KNYC 191651Z AUTO 30013G27KT 280V340 10SM OVC049 09/M01 A2951 RMK AO2 PK
                 WND 29027/1651 SLP986 T00941011 $ =
2017-11-19 10:51 METAR KNYC 191551Z AUTO 29017G31KT 10SM BKN048 10/M01 A2946 RMK AO2 PK WND
                 29031/1551 SLP969 T01001006 $ =
2017-11-19 09:51 METAR KNYC 191451Z AUTO 29016G34KT 10SM BKN041 BKN055 11/01 A2941 RMK AO2 PK WND
                 29034/1451 PRESRR SLP950 60002 T01060011 53056 $ =
2017-11-19 08:51 METAR KNYC 191351Z AUTO 28007G22KT 10SM BKN039 12/05 A2935 RMK AO2 PK WND
                 29031/1318 SLP929 T01170050 $ =
2017-11-19 07:51 METAR KNYC 191251Z AUTO VRB06G17KT 10SM FEW022 BKN030 OVC070 13/09 A2927 RMK AO2
                 RAE30 SLP904 P0002 T01330094 $ =
2017-11-19 06:51 METAR KNYC 191151Z AUTO VRB05G15KT 7SM -RA FEW012 OVC070 14/12 A2924 RMK AO2
                 SLP894 P0002 60021 70031 T01390122 10150 20139 56019 $ =
2017-11-19 05:51 METAR KNYC 191051Z AUTO 22007G21KT 070V300 8SM -RA BKN015 OVC023 15/13 A2925 RMK
                 AO2 SLP897 P0005 T01500133 $ =
2017-11-19 04:51 METAR KNYC 190951Z AUTO VRB05KT 4SM RA OVC014 14/13 A2927 RMK AO2 SLP904 P0011
                 T01390133 $ =
2017-11-19 03:51 METAR KNYC 190851Z AUTO 10SM -RA BKN018 OVC025 14/12 A2930 RMK AO2 RAE18B41
                 SLP913 P0001 60003 T01390122 58029 $ =
2017-11-19 02:51 METAR KNYC 190751Z AUTO 8SM -RA BKN030 BKN035 OVC055 14/12 A2934 RMK AO2
                 RAE17B45 SLP926 P0002 T01390117 $ =

Support USWX by starting your Amazon purchase here.